Terminal Aerodrome Forecast
Issued by NWS

Home | Current Version | Previous Version | Text Only | Print | Product List | Glossary On
Versions: 1 2 3 4 5 6 7 8 9 10 11 12 13 14 15
000
FTUS45 KVEF 050211 AAA
TAFVGT
TAF AMD
KVGT 050211Z 0502/0524 12008KT P6SM VCSH SCT100 BKN140
     FM050600 VRB05KT P6SM BKN090
     FM051400 15007KT P6SM SCT120=

USA.gov is the U.S. government's official web portal to all federal, state and local government web resources and services.